sim
Sign-in with your pilot id or email,
or register
Callsign
Passwort

Schedule Details

Flight Number: OEO4874
Departure: Dortmund Airport (EDLW) at 04:00
Arrival: Fuerteventura Airport (GCFV) at 08:45

Weather Information
Getting current METAR information for EDLW 211520Z 25008KT 220V290 9999 FEW034 BKN042 11/05 Q1026
Getting current METAR information for GCFV 211500Z 06004KT 010V110 CAVOK 20/14 Q1021

Schedule Frequency

Route Map